Time;durP1;ratioP1;P1;durP2;ratioP2;P2;SDS_P1;SDS_P2;PMS_P1;PMS_P2;Temp;Humidity;BMP_temperature;BMP_pressure;BME280_temperature;BME280_humidity;BME280_pressure;Samples;Min_cycle;Max_cycle;Signal;HPM_P1;HPM_P2
2023/04/08 00:00:48;;;;;;;66.15;27.92;;;;;;;8.06;100.00;102104.47;4968319;28;20468;-70
2023/04/08 00:03:15;;;;;;;65.47;28.35;;;;;;;8.09;100.00;102102.72;4988644;28;20043;-70
2023/04/08 00:05:43;;;;;;;67.53;29.80;;;;;;;8.09;100.00;102105.34;4969710;28;20085;-70
2023/04/08 00:08:10;;;;;;;66.13;29.08;;;;;;;8.11;100.00;102112.38;4987862;28;20046;-70
2023/04/08 00:10:37;;;;;;;64.20;28.77;;;;;;;8.12;100.00;102111.50;4970809;28;20042;-70
2023/04/08 00:13:04;;;;;;;64.50;29.80;;;;;;;8.08;100.00;102103.63;4986809;28;20138;-70
2023/04/08 00:15:31;;;;;;;58.88;29.55;;;;;;;8.06;100.00;102105.38;4967779;28;20133;-69
2023/04/08 00:17:58;;;;;;;65.60;29.83;;;;;;;8.07;100.00;102101.88;4986775;28;20042;-70
2023/04/08 00:20:25;;;;;;;59.97;28.92;;;;;;;8.06;100.00;102100.13;4986110;28;20486;-69
2023/04/08 00:22:52;;;;;;;65.35;30.42;;;;;;;8.04;100.00;102096.63;4970567;28;20487;-70
2023/04/08 00:25:19;;;;;;;50.47;28.55;;;;;;;8.05;100.00;102103.63;4985718;28;20043;-70
2023/04/08 00:27:48;;;;;;;47.38;26.63;;;;;;;8.07;100.00;102100.97;4987779;28;20047;-70
2023/04/08 00:30:15;;;;;;;47.88;26.45;;;;;;;8.01;100.00;102104.47;4986616;28;20045;-70
2023/04/08 00:32:45;;;;;;;45.47;26.08;;;;;;;7.95;100.00;102101.88;4968434;28;20098;-70
2023/04/08 00:35:13;;;;;;;41.90;24.58;;;;;;;7.91;100.00;102103.63;4952812;28;20046;-69
2023/04/08 00:37:40;;;;;;;43.75;25.80;;;;;;;7.83;100.00;102101.84;4971014;28;20070;-69
2023/04/08 00:40:08;;;;;;;43.13;26.15;;;;;;;7.80;100.00;102107.97;4985590;28;20539;-69
2023/04/08 00:42:35;;;;;;;42.80;26.42;;;;;;;7.75;100.00;102109.69;4969353;28;20046;-69
2023/04/08 00:45:02;;;;;;;45.17;27.05;;;;;;;7.70;100.00;102107.06;4970056;28;20038;-68
2023/04/08 00:47:30;;;;;;;46.75;27.42;;;;;;;7.69;100.00;102109.69;4982843;28;20126;-68
2023/04/08 00:49:57;;;;;;;45.63;27.80;;;;;;;7.65;100.00;102111.44;4986108;28;20135;-69
2023/04/08 00:52:24;;;;;;;49.42;28.70;;;;;;;7.64;100.00;102116.66;4979209;28;20522;-68
2023/04/08 00:54:51;;;;;;;53.97;30.17;;;;;;;7.61;100.00;102118.44;4986287;28;20133;-69
2023/04/08 00:57:19;;;;;;;48.90;28.85;;;;;;;7.56;100.00;102111.44;4986398;28;20282;-68
2023/04/08 00:59:46;;;;;;;50.47;29.35;;;;;;;7.55;100.00;102120.16;4987338;28;20055;-69
2023/04/08 01:02:41;;;;;;;52.20;30.00;;;;;;;7.52;100.00;102128.03;4969699;28;20909;-70
2023/04/08 01:05:38;;;;;;;57.63;31.13;;;;;;;7.47;100.00;102125.38;4967844;28;22134;-70
2023/04/08 01:08:10;;;;;;;54.20;31.15;;;;;;;7.45;100.00;102122.78;4974916;28;20130;-70
2023/04/08 01:10:44;;;;;;;56.70;30.83;;;;;;;7.39;100.00;102133.22;4985106;28;20118;-70
2023/04/08 01:13:17;;;;;;;57.13;31.90;;;;;;;7.36;100.00;102125.38;4984110;28;20567;-70
2023/04/08 01:15:45;;;;;;;60.30;32.05;;;;;;;7.33;100.00;102129.69;4985745;28;20031;-70
2023/04/08 01:18:15;;;;;;;58.05;31.83;;;;;;;7.31;100.00;102127.06;4982267;28;20146;-69
2023/04/08 01:20:44;;;;;;;58.03;30.70;;;;;;;7.27;100.00;102127.97;4972209;28;20889;-69
2023/04/08 01:23:29;;;;;;;57.47;29.90;;;;;;;7.20;100.00;102129.66;4990515;28;20046;-69
2023/04/08 01:25:57;;;;;;;70.65;33.78;;;;;;;7.18;100.00;102128.78;4985358;28;20046;-69
2023/04/08 01:28:30;;;;;;;74.47;33.63;;;;;;;7.13;100.00;102122.63;4984953;28;20034;-70
2023/04/08 01:30:59;;;;;;;79.25;31.33;;;;;;;7.12;100.00;102131.38;4969655;28;20543;-70
2023/04/08 01:33:29;;;;;;;78.43;33.30;;;;;;;7.12;100.00;102136.63;4967827;28;20061;-69
2023/04/08 01:35:58;;;;;;;108.65;35.03;;;;;;;7.08;100.00;102133.09;4984320;28;20035;-70
2023/04/08 01:38:28;;;;;;;171.40;36.35;;;;;;;7.07;100.00;102131.34;4986296;28;20039;-71
2023/04/08 01:40:56;;;;;;;184.75;38.88;;;;;;;7.07;100.00;102130.47;4966565;28;20046;-71
2023/04/08 01:43:26;;;;;;;230.80;39.47;;;;;;;7.06;100.00;102129.59;4968584;28;20049;-71
2023/04/08 01:45:57;;;;;;;232.48;41.63;;;;;;;7.07;100.00;102139.19;4966057;28;20039;-71
2023/04/08 01:48:25;;;;;;;146.15;37.17;;;;;;;7.06;100.00;102142.72;4982583;28;20050;-71
2023/04/08 01:50:56;;;;;;;87.55;32.65;;;;;;;7.08;100.00;102140.09;4971823;28;20636;-71
2023/04/08 01:53:23;;;;;;;109.60;34.08;;;;;;;7.09;100.00;102142.72;4981690;28;20078;-71
2023/04/08 01:55:57;;;;;;;112.38;33.38;;;;;;;7.12;100.00;102139.25;4984948;28;20042;-71
2023/04/08 01:58:31;;;;;;;86.50;32.42;;;;;;;7.14;100.00;102137.50;4967748;28;20078;-71
2023/04/08 02:00:59;;;;;;;66.60;30.63;;;;;;;7.15;100.00;102145.38;4963797;28;20050;-72
2023/04/08 02:03:30;;;;;;;69.85;31.85;;;;;;;7.18;100.00;102146.25;4968364;28;20064;-71
2023/04/08 02:05:58;;;;;;;72.60;31.80;;;;;;;7.21;100.00;102154.13;4966945;28;20125;-71
2023/04/08 02:08:25;;;;;;;61.22;31.75;;;;;;;7.24;100.00;102152.41;4968203;28;20065;-71
2023/04/08 02:10:53;;;;;;;69.72;32.28;;;;;;;7.28;100.00;102142.78;4981198;28;20363;-71
2023/04/08 02:13:20;;;;;;;102.22;33.78;;;;;;;7.32;100.00;102143.72;4968489;28;20043;-71
2023/04/08 02:15:55;;;;;;;133.65;36.65;;;;;;;7.34;100.00;102148.09;4969632;28;20061;-71
2023/04/08 02:18:29;;;;;;;79.40;33.28;;;;;;;7.35;100.00;102143.69;4984657;28;20055;-71
2023/04/08 02:21:13;;;;;;;60.83;31.15;;;;;;;7.38;100.00;102141.09;4966923;28;21064;-70
2023/04/08 02:23:48;;;;;;;75.07;34.33;;;;;;;7.40;100.00;102142.84;4967858;28;20840;-70
2023/04/08 02:26:17;;;;;;;491.77;51.33;;;;;;;7.43;100.00;102148.13;4966710;28;20046;-70
2023/04/08 02:28:48;;;;;;;154.30;36.00;;;;;;;7.43;100.00;102149.84;4957829;28;20051;-70
2023/04/08 02:31:18;;;;;;;114.85;31.05;;;;;;;7.43;100.00;102149.84;4985739;28;20045;-71
2023/04/08 02:33:47;;;;;;;195.52;33.20;;;;;;;7.43;100.00;102150.75;4966920;28;20620;-70
2023/04/08 02:36:16;;;;;;;155.88;31.98;;;;;;;7.44;100.00;102154.22;4984840;28;20035;-70
2023/04/08 02:38:48;;;;;;;104.25;29.17;;;;;;;7.44;100.00;102144.63;4949803;28;20050;-70
2023/04/08 02:41:16;;;;;;;156.85;31.73;;;;;;;7.46;100.00;102158.63;4981557;28;20031;-70
2023/04/08 02:43:44;;;;;;;169.07;33.83;;;;;;;7.46;100.00;102160.38;4968976;28;20098;-70
2023/04/08 02:46:11;;;;;;;228.18;31.77;;;;;;;7.45;100.00;102156.00;4984877;28;20031;-70
2023/04/08 02:48:38;;;;;;;200.18;34.38;;;;;;;7.44;100.00;102163.00;4967715;28;20039;-70
2023/04/08 02:51:05;;;;;;;73.15;31.23;;;;;;;7.42;100.00;102163.88;4984396;28;20049;-71
2023/04/08 02:53:32;;;;;;;61.50;30.58;;;;;;;7.41;100.00;102151.63;4987483;28;20051;-71
2023/04/08 02:56:00;;;;;;;60.63;29.38;;;;;;;7.44;100.00;102154.22;4953508;28;20125;-71
2023/04/08 02:58:27;;;;;;;115.80;34.22;;;;;;;7.44;100.00;102157.75;4967926;28;20038;-71
2023/04/08 03:00:54;;;;;;;129.60;34.97;;;;;;;7.44;100.00;102160.38;4966005;28;20046;-71
2023/04/08 03:03:28;;;;;;;127.40;32.35;;;;;;;7.45;100.00;102158.63;4984374;28;20039;-70
2023/04/08 03:05:57;;;;;;;82.55;31.85;;;;;;;7.44;100.00;102163.00;4988207;28;20525;-70
2023/04/08 03:08:24;;;;;;;414.60;46.38;;;;;;;7.44;100.00;102163.00;4955210;28;20038;-72
2023/04/08 03:10:51;;;;;;;173.80;33.17;;;;;;;7.43;100.00;102166.50;4971104;28;20050;-70
2023/04/08 03:13:18;;;;;;;132.75;31.98;;;;;;;7.42;100.00;102164.72;4988055;28;20588;-71
2023/04/08 03:15:45;;;;;;;411.02;46.05;;;;;;;7.40;100.00;102160.34;4987332;28;20039;-71
2023/04/08 03:18:12;;;;;;;188.15;32.35;;;;;;;7.37;100.00;102166.47;4987552;28;20082;-71
2023/04/08 03:20:39;;;;;;;250.60;38.70;;;;;;;7.34;100.00;102169.06;4987750;28;20035;-71
2023/04/08 03:23:06;;;;;;;206.52;35.67;;;;;;;7.30;100.00;102155.06;4967121;28;20051;-71
2023/04/08 03:25:33;;;;;;;136.27;34.10;;;;;;;7.30;100.00;102167.28;4980974;28;20031;-71
2023/04/08 03:28:00;;;;;;;109.78;33.75;;;;;;;7.28;100.00;102167.31;4987690;28;20049;-71
2023/04/08 03:30:27;;;;;;;451.88;45.78;;;;;;;7.29;100.00;102160.28;4978658;28;20389;-71
2023/04/08 03:32:54;;;;;;;227.60;37.55;;;;;;;7.32;100.00;102162.06;4971173;28;20047;-71
2023/04/08 03:35:22;;;;;;;100.40;36.03;;;;;;;7.30;100.00;102157.69;4969728;28;20510;-71
2023/04/08 03:37:49;;;;;;;171.20;39.30;;;;;;;7.28;100.00;102156.81;4985048;28;20045;-70
2023/04/08 03:40:16;;;;;;;131.30;37.95;;;;;;;7.27;100.00;102164.69;4988077;28;20042;-71
2023/04/08 03:42:43;;;;;;;104.97;34.00;;;;;;;7.25;100.00;102171.66;4986599;28;20086;-71
2023/04/08 03:45:10;;;;;;;102.72;36.25;;;;;;;7.24;100.00;102176.00;4986461;28;20034;-70
2023/04/08 03:47:37;;;;;;;124.43;36.13;;;;;;;7.22;100.00;102169.91;4984300;28;20114;-70
2023/04/08 03:50:04;;;;;;;167.27;40.05;;;;;;;7.22;100.00;102177.78;4987438;28;20322;-70
2023/04/08 03:52:31;;;;;;;145.77;37.78;;;;;;;7.22;100.00;102179.50;4969855;28;20073;-70
2023/04/08 03:54:58;;;;;;;142.77;37.83;;;;;;;7.20;100.00;102178.63;4985774;28;20039;-70
2023/04/08 03:57:25;;;;;;;101.55;36.67;;;;;;;7.19;100.00;102176.84;4988975;28;20043;-70
2023/04/08 03:59:53;;;;;;;121.72;39.50;;;;;;;7.20;100.00;102176.88;4950272;28;20047;-70
2023/04/08 04:02:20;;;;;;;145.27;39.58;;;;;;;7.23;100.00;102181.25;4981286;28;20066;-71
2023/04/08 04:04:47;;;;;;;100.07;36.22;;;;;;;7.24;100.00;102183.03;4968291;28;20507;-71
2023/04/08 04:07:14;;;;;;;132.80;36.45;;;;;;;7.25;100.00;102184.78;4988337;28;20035;-71
2023/04/08 04:09:41;;;;;;;142.48;35.50;;;;;;;7.21;100.00;102183.88;4987906;28;20050;-70
2023/04/08 04:12:08;;;;;;;314.33;40.20;;;;;;;7.22;100.00;102190.00;4970172;28;20102;-70
2023/04/08 04:14:35;;;;;;;247.65;39.80;;;;;;;7.20;100.00;102190.00;4990223;28;20049;-70
2023/04/08 04:17:02;;;;;;;589.47;54.97;;;;;;;7.18;100.00;102194.34;4985251;28;20982;-70
2023/04/08 04:19:30;;;;;;;342.58;34.80;;;;;;;7.14;100.00;102197.81;4968211;28;20038;-70
2023/04/08 04:21:57;;;;;;;707.28;60.33;;;;;;;7.08;100.00;102197.78;4986085;28;20057;-70
2023/04/08 04:24:24;;;;;;;999.10;80.50;;;;;;;7.07;100.00;102203.91;4987392;28;20042;-70
2023/04/08 04:26:51;;;;;;;750.22;57.85;;;;;;;7.05;100.00;102203.00;4986781;28;20556;-70
2023/04/08 04:29:18;;;;;;;861.03;75.10;;;;;;;7.01;100.00;102212.59;4969018;28;20046;-70
2023/04/08 04:31:45;;;;;;;775.47;62.15;;;;;;;6.97;100.00;102206.47;4987342;28;20039;-70
2023/04/08 04:34:13;;;;;;;1003.92;69.82;;;;;;;6.94;100.00;102214.31;4983668;28;20050;-70
2023/04/08 04:36:40;;;;;;;845.72;57.85;;;;;;;6.84;100.00;102210.75;4987102;28;20039;-70
2023/04/08 04:39:07;;;;;;;887.80;56.78;;;;;;;6.73;100.00;102207.19;4986591;28;20052;-70
2023/04/08 04:41:39;;;;;;;803.35;53.83;;;;;;;6.68;100.00;102208.88;4984822;28;20118;-70
2023/04/08 04:44:06;;;;;;;692.67;52.97;;;;;;;6.64;100.00;102207.97;4987341;28;20102;-70
2023/04/08 04:46:33;;;;;;;799.38;58.13;;;;;;;6.61;100.00;102204.44;4984440;28;20035;-70
2023/04/08 04:49:00;;;;;;;696.65;53.17;;;;;;;6.54;100.00;102208.75;4984245;28;20055;-70
2023/04/08 04:51:31;;;;;;;998.05;75.35;;;;;;;6.52;100.00;102213.09;4978867;28;20568;-70
2023/04/08 04:53:58;;;;;;;259.55;36.65;;;;;;;6.51;100.00;102222.72;4987514;28;20678;-70
2023/04/08 04:56:25;;;;;;;584.28;49.88;;;;;;;6.55;100.00;102213.13;4985995;28;20824;-70
2023/04/08 04:58:53;;;;;;;962.17;78.55;;;;;;;6.57;100.00;102227.13;4968190;28;20126;-69
2023/04/08 05:01:20;;;;;;;864.65;62.90;;;;;;;6.57;100.00;102232.38;4968882;28;20054;-70
2023/04/08 05:03:47;;;;;;;768.40;55.47;;;;;;;6.49;100.00;102224.44;4965933;28;20147;-70
2023/04/08 05:06:14;;;;;;;661.00;52.45;;;;;;;6.41;100.00;102233.13;4969084;28;20050;-70
2023/04/08 05:08:41;;;;;;;637.10;48.28;;;;;;;6.36;100.00;102235.66;4987020;28;20037;-69
2023/04/08 05:11:10;;;;;;;694.15;55.22;;;;;;;6.28;100.00;102237.34;4971709;28;20495;-68
2023/04/08 05:13:37;;;;;;;629.13;52.10;;;;;;;6.17;100.00;102243.34;4977460;28;20042;-69
2023/04/08 05:16:04;;;;;;;664.20;57.25;;;;;;;6.05;100.00;102244.09;4973259;28;20046;-68
2023/04/08 05:18:31;;;;;;;645.28;57.03;;;;;;;6.01;100.00;102249.28;4969391;28;20046;-69
2023/04/08 05:21:03;;;;;;;590.60;52.10;;;;;;;5.97;100.00;102255.28;4974401;28;20085;-68
2023/04/08 05:23:30;;;;;;;512.05;45.42;;;;;;;5.86;100.00;102260.41;4994968;28;20039;-69
2023/04/08 05:25:57;;;;;;;647.45;58.83;;;;;;;5.78;100.00;102272.53;4976105;28;20060;-69
2023/04/08 05:28:24;;;;;;;778.90;67.85;;;;;;;5.74;100.00;102276.88;4988467;28;20560;-69
2023/04/08 05:30:52;;;;;;;448.77;41.50;;;;;;;5.69;100.00;102282.03;4992601;28;20093;-69
2023/04/08 05:33:19;;;;;;;548.80;43.95;;;;;;;5.56;100.00;102275.72;4968942;28;20039;-69
2023/04/08 05:35:46;;;;;;;539.85;52.45;;;;;;;5.47;100.00;102269.53;4990276;28;20038;-70
2023/04/08 05:38:14;;;;;;;669.22;60.15;;;;;;;5.44;100.00;102267.75;4986198;28;20405;-70
2023/04/08 05:40:41;;;;;;;702.72;65.57;;;;;;;5.44;100.00;102271.22;4969067;28;20789;-69
2023/04/08 05:43:11;;;;;;;429.20;43.17;;;;;;;5.48;100.00;102276.50;4996554;28;20039;-70
2023/04/08 05:45:38;;;;;;;614.17;59.72;;;;;;;5.51;100.00;102277.44;4991116;28;20523;-70
2023/04/08 05:48:05;;;;;;;523.35;52.38;;;;;;;5.54;100.00;102274.88;4966702;28;20067;-70
2023/04/08 05:50:35;;;;;;;702.28;64.78;;;;;;;5.55;100.00;102278.34;4988374;28;20042;-69
2023/04/08 05:53:02;;;;;;;515.15;46.15;;;;;;;5.54;100.00;102287.94;4969493;28;20110;-69
2023/04/08 05:55:29;;;;;;;712.40;61.83;;;;;;;5.51;100.00;102289.59;4991815;28;20067;-69
2023/04/08 05:57:56;;;;;;;405.25;40.53;;;;;;;5.50;100.00;102288.75;4967867;28;20104;-68
2023/04/08 06:00:23;;;;;;;571.63;53.72;;;;;;;5.52;100.00;102289.66;4969774;28;20049;-68
2023/04/08 06:02:50;;;;;;;525.45;50.97;;;;;;;5.65;100.00;102300.25;4969019;28;20953;-67
2023/04/08 06:05:18;;;;;;;344.98;40.35;;;;;;;5.80;100.00;102299.63;4968547;28;20621;-67
2023/04/08 06:07:45;;;;;;;636.42;56.22;;;;;;;5.91;100.00;102290.13;4989259;28;20109;-68
2023/04/08 06:10:12;;;;;;;676.65;65.90;;;;;;;5.97;100.00;102292.84;4985328;28;20162;-68
2023/04/08 06:12:39;;;;;;;562.30;52.00;;;;;;;5.95;100.00;102302.41;4987421;28;20054;-66
2023/04/08 06:15:07;;;;;;;510.00;46.72;;;;;;;5.90;100.00;102307.59;4988032;28;20123;-68
2023/04/08 06:17:38;;;;;;;197.25;26.20;;;;;;;5.85;100.00;102300.53;4991393;28;20069;-68
2023/04/08 06:20:06;;;;;;;697.05;66.75;;;;;;;5.80;100.00;102303.09;4988038;28;20049;-68
2023/04/08 06:22:33;;;;;;;573.03;55.85;;;;;;;5.78;100.00;102312.66;4968167;28;20054;-68
2023/04/08 06:25:00;;;;;;;526.33;48.67;;;;;;;5.77;100.00;102305.66;4988090;28;20035;-69
2023/04/08 06:27:27;;;;;;;423.20;40.75;;;;;;;5.77;100.00;102308.28;4977286;28;20042;-68
2023/04/08 06:29:54;;;;;;;335.70;34.03;;;;;;;5.79;100.00;102309.19;4976507;28;20569;-68
2023/04/08 06:32:21;;;;;;;472.88;44.03;;;;;;;5.79;100.00;102311.81;4982605;28;20066;-68
2023/04/08 06:34:48;;;;;;;515.58;50.53;;;;;;;5.80;100.00;102315.31;4970655;28;20051;-68
2023/04/08 06:37:15;;;;;;;426.75;42.83;;;;;;;5.77;100.00;102321.38;4990628;28;20507;-67
2023/04/08 06:39:43;;;;;;;475.27;50.70;;;;;;;5.73;100.00;102325.69;4995371;28;20038;-67
2023/04/08 06:42:10;;;;;;;494.55;48.67;;;;;;;5.74;100.00;102331.81;4991176;28;20094;-67
2023/04/08 06:45:04;;;;;;;320.98;34.72;;;;;;;5.76;100.00;102335.31;4987466;28;20062;-67
2023/04/08 06:47:31;;;;;;;510.17;46.47;;;;;;;5.78;100.00;102338.84;4971175;28;20100;-69
2023/04/08 06:49:58;;;;;;;469.52;45.05;;;;;;;5.76;100.00;102340.53;4990837;28;20494;-68
2023/04/08 06:52:25;;;;;;;299.98;31.88;;;;;;;5.78;100.00;102335.34;4973604;28;20034;-68
2023/04/08 06:54:52;;;;;;;402.15;42.10;;;;;;;5.76;100.00;102343.16;4973205;28;20051;-68
2023/04/08 06:57:19;;;;;;;337.80;33.85;;;;;;;5.76;100.00;102345.78;4974951;28;20598;-68
2023/04/08 06:59:46;;;;;;;584.75;54.05;;;;;;;5.72;99.99;102350.09;4988518;28;20043;-67
2023/04/08 07:02:13;;;;;;;379.63;37.00;;;;;;;5.74;100.00;102351.00;4987051;28;20035;-68
2023/04/08 07:04:40;;;;;;;351.58;35.17;;;;;;;5.78;100.00;102356.28;4991801;28;20042;-68
2023/04/08 07:07:07;;;;;;;277.10;30.38;;;;;;;5.83;99.73;102367.69;4978934;28;20262;-68
2023/04/08 07:09:35;;;;;;;426.13;43.38;;;;;;;5.79;99.67;102364.16;4970064;28;20043;-67
2023/04/08 07:12:03;;;;;;;425.10;36.47;;;;;;;5.75;98.75;102371.09;4970699;28;20515;-68
2023/04/08 07:14:30;;;;;;;318.63;29.70;;;;;;;5.72;98.19;102376.25;4968624;28;20051;-67
2023/04/08 07:16:57;;;;;;;329.38;33.50;;;;;;;5.68;97.93;102376.19;4971801;28;20054;-67
2023/04/08 07:19:24;;;;;;;220.93;26.50;;;;;;;5.68;97.73;102377.09;5001683;28;20047;-67
2023/04/08 07:21:51;;;;;;;342.83;37.20;;;;;;;5.65;97.54;102369.19;4988663;28;20035;-68
2023/04/08 07:24:19;;;;;;;444.60;38.65;;;;;;;5.69;98.24;102370.09;4989422;28;20519;-67
2023/04/08 07:26:46;;;;;;;135.15;24.60;;;;;;;5.82;98.80;102372.06;4987498;28;20043;-67
2023/04/08 07:29:14;;;;;;;176.85;29.35;;;;;;;6.02;98.87;102374.09;5006871;28;20052;-67
2023/04/08 07:31:44;;;;;;;188.95;31.30;;;;;;;6.17;99.03;102374.28;5006394;28;20042;-68
2023/04/08 07:34:11;;;;;;;190.88;30.27;;;;;;;6.31;99.22;102377.06;4989022;28;20039;-67
2023/04/08 07:36:39;;;;;;;90.05;23.40;;;;;;;6.39;98.35;102371.91;4988307;28;20070;-68
2023/04/08 07:39:06;;;;;;;109.03;24.88;;;;;;;6.37;97.09;102374.53;4972369;28;20832;-68
2023/04/08 07:41:33;;;;;;;117.57;27.63;;;;;;;6.40;96.88;102375.44;4981836;28;20053;-69
2023/04/08 07:44:00;;;;;;;135.98;29.15;;;;;;;6.44;96.81;102379.84;4987153;28;20075;-68
2023/04/08 07:46:28;;;;;;;201.52;32.50;;;;;;;6.49;96.58;102388.63;4971709;28;20043;-68
2023/04/08 07:48:55;;;;;;;225.88;30.73;;;;;;;6.51;96.55;102387.78;4986805;28;20047;-68
2023/04/08 07:51:22;;;;;;;124.43;28.02;;;;;;;6.55;96.16;102386.06;4971375;28;20446;-68
2023/04/08 07:53:49;;;;;;;161.25;30.35;;;;;;;6.52;96.07;102384.31;4989259;28;20569;-68
2023/04/08 07:56:17;;;;;;;145.50;26.55;;;;;;;6.60;96.22;102386.13;4989145;28;20151;-68
2023/04/08 07:58:45;;;;;;;176.02;33.88;;;;;;;6.63;95.47;102384.41;4970276;28;20041;-68
2023/04/08 08:01:21;;;;;;;126.35;26.08;;;;;;;6.66;95.14;102397.56;4986040;28;20039;-66
2023/04/08 08:03:50;;;;;;;129.68;30.10;;;;;;;6.59;95.29;102400.97;4987879;28;20125;-68
2023/04/08 08:06:18;;;;;;;81.50;26.60;;;;;;;6.64;95.09;102407.13;4987748;28;20045;-68
2023/04/08 08:08:45;;;;;;;90.15;28.02;;;;;;;6.68;95.53;102397.56;4988824;28;20509;-68
2023/04/08 08:11:12;;;;;;;56.30;26.30;;;;;;;6.82;95.73;102397.72;4988199;28;20668;-68
2023/04/08 08:13:40;;;;;;;56.33;26.02;;;;;;;6.93;94.91;102397.84;4989349;28;20851;-68
2023/04/08 08:16:10;;;;;;;47.97;25.30;;;;;;;7.03;94.93;102410.16;4987127;28;20586;-68
2023/04/08 08:18:39;;;;;;;32.63;23.92;;;;;;;7.08;94.92;102404.97;4960031;28;20117;-68
2023/04/08 08:21:07;;;;;;;33.30;23.23;;;;;;;7.12;92.12;102409.38;4976367;28;20041;-68
2023/04/08 08:23:34;;;;;;;49.75;23.55;;;;;;;7.03;91.69;102410.16;4989207;28;20042;-69
2023/04/08 08:26:09;;;;;;;29.25;21.58;;;;;;;6.90;92.07;102410.91;4988460;28;20902;-69
2023/04/08 08:28:38;;;;;;;29.13;22.92;;;;;;;6.81;93.05;102419.56;4970498;28;21032;-69
2023/04/08 08:31:05;;;;;;;28.15;22.27;;;;;;;6.85;93.64;102423.97;4971502;28;20661;-69
2023/04/08 08:33:33;;;;;;;25.02;21.13;;;;;;;6.94;93.76;102415.31;4986836;28;20118;-69
2023/04/08 08:36:00;;;;;;;27.80;22.08;;;;;;;7.06;93.18;102423.31;4985451;28;20239;-69
2023/04/08 08:38:27;;;;;;;24.88;21.38;;;;;;;7.20;92.83;102426.06;4971667;28;20054;-68
2023/04/08 08:40:59;;;;;;;26.25;22.25;;;;;;;7.43;92.20;102425.38;4989026;28;20039;-68
2023/04/08 08:43:28;;;;;;;23.77;20.90;;;;;;;7.67;90.96;102427.31;4970342;28;20515;-68
2023/04/08 08:45:55;;;;;;;24.48;21.08;;;;;;;7.86;90.60;102433.56;4969109;28;20042;-68
2023/04/08 08:48:22;;;;;;;23.27;20.02;;;;;;;8.10;90.67;102429.34;4987213;28;20538;-68
2023/04/08 08:50:49;;;;;;;23.30;20.70;;;;;;;8.33;89.88;102432.06;4987625;28;20189;-68
2023/04/08 08:53:18;;;;;;;22.52;19.50;;;;;;;8.54;89.46;102433.06;4982124;28;20054;-68
2023/04/08 08:55:45;;;;;;;24.65;20.33;;;;;;;8.62;88.89;102436.59;4970233;28;20050;-68
2023/04/08 08:58:32;;;;;;;23.60;19.77;;;;;;;8.63;88.40;102435.72;4973839;28;20481;-68
2023/04/08 09:00:59;;;;;;;25.88;20.00;;;;;;;8.72;86.85;102434.88;4985841;28;20055;-68
2023/04/08 09:03:27;;;;;;;25.20;19.77;;;;;;;8.78;86.63;102436.66;4985662;28;20160;-68
2023/04/08 09:05:57;;;;;;;25.15;20.23;;;;;;;8.83;86.34;102445.41;4970172;28;20035;-68
2023/04/08 09:08:34;;;;;;;25.42;19.40;;;;;;;8.91;86.19;102442.81;4967531;28;20039;-67
2023/04/08 09:11:14;;;;;;;22.85;18.33;;;;;;;8.99;85.77;102443.72;4987730;28;20082;-68
2023/04/08 09:13:42;;;;;;;22.13;17.70;;;;;;;9.00;85.90;102442.84;4988326;28;20122;-67
2023/04/08 09:16:13;;;;;;;17.42;15.50;;;;;;;9.11;84.37;102453.34;4969302;28;20042;-68
2023/04/08 09:18:43;;;;;;;16.45;14.65;;;;;;;9.08;83.59;102450.75;4970757;28;20507;-67
2023/04/08 09:21:18;;;;;;;16.42;14.68;;;;;;;9.12;82.98;102457.75;4971173;28;20129;-67
2023/04/08 09:23:50;;;;;;;15.90;14.00;;;;;;;9.10;82.22;102449.00;4968824;28;20130;-67
2023/04/08 09:26:23;;;;;;;16.52;14.63;;;;;;;9.10;82.38;102446.38;4988130;28;20031;-67
2023/04/08 09:29:06;;;;;;;17.27;14.43;;;;;;;9.18;82.76;102447.25;4987314;28;20043;-67
2023/04/08 09:31:56;;;;;;;15.80;14.13;;;;;;;9.25;82.76;102450.78;4969646;28;20049;-68
2023/04/08 09:34:27;;;;;;;17.67;14.18;;;;;;;9.33;83.34;102449.03;4987062;28;20118;-67
2023/04/08 09:36:55;;;;;;;15.75;13.98;;;;;;;9.47;83.88;102447.25;4971152;28;20046;-68
2023/04/08 09:39:22;;;;;;;15.07;13.50;;;;;;;9.63;83.21;102444.63;4987542;28;20098;-68
2023/04/08 09:41:51;;;;;;;15.23;13.65;;;;;;;9.74;83.03;102442.88;4987886;28;20131;-68
2023/04/08 09:44:20;;;;;;;15.80;13.48;;;;;;;9.92;82.88;102443.72;4986643;28;20039;-67
2023/04/08 09:47:22;;;;;;;16.20;13.02;;;;;;;10.13;82.55;102448.03;4985223;28;20043;-67
2023/04/08 09:49:55;;;;;;;14.48;12.88;;;;;;;10.23;80.30;102448.91;4984427;28;20090;-70
2023/04/08 09:52:42;;;;;;;15.15;12.70;;;;;;;10.24;79.77;102445.38;4994851;28;20063;-68
2023/04/08 09:55:13;;;;;;;13.75;12.18;;;;;;;10.29;78.63;102448.00;4986790;28;20629;-68
2023/04/08 09:57:56;;;;;;;14.27;12.13;;;;;;;10.35;78.18;102440.97;4969994;28;20547;-68
2023/04/08 10:00:31;;;;;;;12.60;11.27;;;;;;;10.40;76.84;102441.84;4969520;28;20042;-68
2023/04/08 10:03:26;;;;;;;14.05;11.48;;;;;;;10.55;75.94;102440.88;4985520;28;20125;-68
2023/04/08 10:05:55;;;;;;;13.05;11.55;;;;;;;10.68;76.04;102440.84;4984594;28;20047;-68
2023/04/08 10:08:26;;;;;;;13.85;11.35;;;;;;;10.83;74.31;102438.13;4977604;28;20050;-69
2023/04/08 10:10:55;;;;;;;13.95;12.18;;;;;;;10.95;73.02;102444.19;4986928;28;20053;-67
2023/04/08 10:13:24;;;;;;;13.70;11.85;;;;;;;11.02;73.21;102438.00;4988297;28;20727;-69
2023/04/08 10:16:17;;;;;;;13.27;11.30;;;;;;;11.23;72.41;102442.25;4969702;28;20061;-68
2023/04/08 10:18:45;;;;;;;15.68;11.95;;;;;;;11.26;72.01;102434.31;4987784;28;20078;-68
2023/04/08 10:21:36;;;;;;;14.43;11.45;;;;;;;11.44;70.77;102435.94;4986018;28;20581;-68
2023/04/08 10:24:10;;;;;;;13.38;11.50;;;;;;;11.62;70.86;102442.81;4985099;28;20547;-69
2023/04/08 10:26:42;;;;;;;;;;;;;;;11.66;72.72;102441.00;4969855;28;20527;-69
2023/04/08 10:29:17;;;;;;;13.88;11.40;;;;;;;11.77;74.05;102438.28;4987752;28;19977;-68
2023/04/08 10:31:52;;;;;;;19.75;12.00;;;;;;;11.83;72.24;102434.69;4986156;28;20039;-69
2023/04/08 10:34:23;;;;;;;13.60;12.13;;;;;;;11.80;72.51;102438.25;4968208;28;20077;-68
2023/04/08 10:36:52;;;;;;;13.68;11.93;;;;;;;11.89;71.79;102429.34;4969486;28;20034;-68
2023/04/08 10:39:19;;;;;;;13.90;11.95;;;;;;;11.93;70.77;102426.66;4968583;28;20059;-68
2023/04/08 10:41:49;;;;;;;13.70;11.00;;;;;;;12.02;70.77;102428.34;4981546;28;20042;-68
2023/04/08 10:44:26;;;;;;;12.27;10.95;;;;;;;12.09;69.02;102422.09;4986941;28;20046;-68
2023/04/08 10:46:54;;;;;;;14.63;10.93;;;;;;;12.19;68.50;102422.00;4967741;28;20039;-68
2023/04/08 10:49:21;;;;;;;14.88;10.95;;;;;;;12.29;69.65;102414.84;4986075;28;20046;-68
2023/04/08 10:51:48;;;;;;;12.07;10.15;;;;;;;12.47;67.44;102421.63;4985821;28;20038;-68
2023/04/08 10:54:17;;;;;;;11.25;9.73;;;;;;;12.61;66.63;102419.69;4983800;28;20095;-69
2023/04/08 10:56:51;;;;;;;12.45;8.93;;;;;;;12.78;62.76;102413.28;4969689;28;20046;-69
2023/04/08 10:59:31;;;;;;;10.30;8.23;;;;;;;12.96;60.43;102412.13;4966124;28;20054;-69
2023/04/08 11:02:00;;;;;;;9.38;8.30;;;;;;;13.07;60.53;102412.00;4983331;28;20089;-69
2023/04/08 11:04:27;;;;;;;11.27;8.52;;;;;;;13.24;59.76;102409.03;4986329;28;20049;-69
2023/04/08 11:06:55;;;;;;;11.25;9.00;;;;;;;13.48;59.71;102406.03;4985332;28;20043;-69
2023/04/08 11:09:22;;;;;;;11.55;8.98;;;;;;;13.75;57.32;102409.06;4983305;28;20164;-69
2023/04/08 11:11:51;;;;;;;9.13;8.15;;;;;;;13.97;57.15;102409.56;4984367;28;20035;-69
2023/04/08 11:14:20;;;;;;;9.68;8.07;;;;;;;14.18;57.52;102396.75;4968748;28;20126;-69
2023/04/08 11:16:48;;;;;;;9.57;8.02;;;;;;;14.36;56.58;102407.88;4971844;28;20213;-69